Time;durP1;ratioP1;P1;durP2;ratioP2;P2;SDS_P1;SDS_P2;PMS_P1;PMS_P2;Temp;Humidity;BMP_temperature;BMP_pressure;BME280_temperature;BME280_humidity;BME280_pressure;Samples;Min_cycle;Max_cycle;Signal;HPM_P1;HPM_P2
2022/11/16 00:02:11;;;;;;;;;;;17.60;54.60;;;;;;5053604;28;19996;-89
2022/11/16 00:04:37;;;;;;;;;;;17.50;56.00;;;;;;5071702;28;19942;-88
2022/11/16 00:07:02;;;;;;;;;;;17.40;57.10;;;;;;5073359;28;20446;-88
2022/11/16 00:09:31;;;;;;;;;;;17.30;57.80;;;;;;5071783;28;19909;-87
2022/11/16 00:11:57;;;;;;;;;;;17.20;58.40;;;;;;5073055;28;20419;-87
2022/11/16 00:14:24;;;;;;;;;;;17.00;58.80;;;;;;5063135;28;19917;-86
2022/11/16 00:16:52;;;;;;;;;;;17.00;59.30;;;;;;5054227;28;20026;-86
2022/11/16 00:19:18;;;;;;;;;;;16.90;59.80;;;;;;5056304;28;20003;-86
2022/11/16 00:21:43;;;;;;;;;;;16.80;60.10;;;;;;5055588;28;20039;-85
2022/11/16 00:24:11;;;;;;;;;;;16.80;60.30;;;;;;5063610;28;19913;-85
2022/11/16 00:26:37;;;;;;;;;;;16.70;60.60;;;;;;5059845;28;19925;-87
2022/11/16 00:29:02;;;;;;;;;;;16.70;60.90;;;;;;5054540;28;19932;-87
2022/11/16 00:31:28;;;;;;;;;;;16.70;61.00;;;;;;5069486;28;19927;-87
2022/11/16 00:33:56;;;;;;;;;;;16.70;61.10;;;;;;5060903;28;20279;-88
2022/11/16 00:36:22;;;;;;;;;;;16.70;61.20;;;;;;5057197;28;20275;-89
2022/11/16 00:38:50;;;;;;;;;;;16.60;61.40;;;;;;5061571;28;20412;-86
2022/11/16 00:41:16;;;;;;;;;;;16.70;61.70;;;;;;5059622;28;20447;-86
2022/11/16 00:43:41;;;;;;;;;;;16.60;61.80;;;;;;5063740;28;19951;-89
2022/11/16 00:46:07;;;;;;;;;;;16.60;61.80;;;;;;5060469;28;19920;-87
2022/11/16 00:48:33;;;;;;;;;;;16.50;61.90;;;;;;5066790;28;19920;-87
2022/11/16 00:50:59;;;;;;;;;;;16.60;62.20;;;;;;5062595;28;19917;-87
2022/11/16 00:53:24;;;;;;;;;;;16.60;62.20;;;;;;5060800;28;19912;-88
2022/11/16 00:55:50;;;;;;;;;;;16.50;62.30;;;;;;5067915;28;19958;-88
2022/11/16 00:58:15;;;;;;;;;;;16.50;62.30;;;;;;5064351;28;19920;-87
2022/11/16 01:00:41;;;;;;;;;;;16.50;62.40;;;;;;5068566;28;19939;-85
2022/11/16 01:03:07;;;;;;;;;;;16.50;62.60;;;;;;5067947;28;19913;-86
2022/11/16 01:05:36;;;;;;;;;;;16.50;62.60;;;;;;5067091;28;20367;-88
2022/11/16 01:08:01;;;;;;;;;;;16.50;62.60;;;;;;5059727;28;20367;-89
2022/11/16 01:10:27;;;;;;;;;;;16.50;62.60;;;;;;5066240;28;20031;-88
2022/11/16 01:12:53;;;;;;;;;;;16.50;62.70;;;;;;5067332;28;20274;-89
2022/11/16 01:15:20;;;;;;;;;;;16.50;62.70;;;;;;5056240;28;20505;-89
2022/11/16 01:17:46;;;;;;;;;;;16.50;62.80;;;;;;5054384;28;19928;-87
2022/11/16 01:20:14;;;;;;;;;;;16.50;62.80;;;;;;5069800;28;19923;-87
2022/11/16 01:22:40;;;;;;;;;;;16.50;62.80;;;;;;5068362;28;19971;-88
2022/11/16 01:25:07;;;;;;;;;;;16.40;62.90;;;;;;5054828;28;20313;-88
2022/11/16 01:27:33;;;;;;;;;;;16.50;62.90;;;;;;5076182;28;19917;-87
2022/11/16 01:29:58;;;;;;;;;;;16.40;62.90;;;;;;5070531;28;19943;-88
2022/11/16 01:32:24;;;;;;;;;;;16.50;62.90;;;;;;5071220;28;19916;-88
2022/11/16 01:34:49;;;;;;;;;;;16.40;62.90;;;;;;5071067;28;19962;-87
2022/11/16 01:37:15;;;;;;;;;;;16.40;62.90;;;;;;5072912;28;19917;-88
2022/11/16 01:39:41;;;;;;;;;;;16.40;62.90;;;;;;5070063;28;19924;-87
2022/11/16 01:42:06;;;;;;;;;;;16.40;63.00;;;;;;5063341;28;19921;-87
2022/11/16 01:44:32;;;;;;;;;;;16.30;62.90;;;;;;5057690;28;19959;-89
2022/11/16 01:47:01;;;;;;;;;;;16.30;62.90;;;;;;5060147;28;19969;-87
2022/11/16 01:49:29;;;;;;;;;;;16.30;63.00;;;;;;5052847;28;19920;-88
2022/11/16 01:51:58;;;;;;;;;;;16.30;63.10;;;;;;5068518;28;19919;-87
2022/11/16 01:54:24;;;;;;;;;;;16.30;63.20;;;;;;5050273;28;20402;-88
2022/11/16 01:56:50;;;;;;;;;;;16.20;63.10;;;;;;5049669;28;19912;-89
2022/11/16 01:59:16;;;;;;;;;;;16.30;63.20;;;;;;5050062;28;19946;-89
2022/11/16 02:01:42;;;;;;;;;;;16.20;63.30;;;;;;5062744;28;19920;-87
2022/11/16 02:04:11;;;;;;;;;;;16.20;63.30;;;;;;5069642;28;19913;-87
2022/11/16 02:06:46;;;;;;;;;;;16.20;63.30;;;;;;5075661;28;19917;-86
2022/11/16 02:12:05;;;;;;;;;;;16.20;63.40;;;;;;5071062;28;19966;-86
2022/11/16 02:14:49;;;;;;;;;;;16.20;63.50;;;;;;5069565;28;19917;-87
2022/11/16 02:17:15;;;;;;;;;;;16.20;63.60;;;;;;5072566;28;19923;-86
2022/11/16 02:19:43;;;;;;;;;;;16.10;63.70;;;;;;5070819;28;19916;-87
2022/11/16 02:22:27;;;;;;;;;;;16.10;63.60;;;;;;5070627;28;19919;-88
2022/11/16 02:25:03;;;;;;;;;;;16.10;63.70;;;;;;5062775;28;19917;-86
2022/11/16 02:27:28;;;;;;;;;;;16.10;63.80;;;;;;5053998;28;19916;-86
2022/11/16 02:29:54;;;;;;;;;;;16.00;63.70;;;;;;5054608;28;19923;-87
2022/11/16 02:32:27;;;;;;;;;;;16.00;63.80;;;;;;5062222;28;19917;-87
2022/11/16 02:34:59;;;;;;;;;;;16.00;63.80;;;;;;5067626;28;19946;-88
2022/11/16 02:37:30;;;;;;;;;;;16.00;63.90;;;;;;5051638;28;19978;-86
2022/11/16 02:39:57;;;;;;;;;;;16.00;63.90;;;;;;5049449;28;19964;-88
2022/11/16 02:42:33;;;;;;;;;;;16.00;64.00;;;;;;5049487;28;19920;-87
2022/11/16 02:44:59;;;;;;;;;;;16.00;64.00;;;;;;5058365;28;20190;-87
2022/11/16 02:47:28;;;;;;;;;;;16.00;64.10;;;;;;5068258;28;19955;-87
2022/11/16 02:49:56;;;;;;;;;;;16.00;64.20;;;;;;5049221;28;19948;-88
2022/11/16 02:52:22;;;;;;;;;;;16.00;64.10;;;;;;5049772;28;19916;-88
2022/11/16 02:54:48;;;;;;;;;;;16.00;64.10;;;;;;5049364;28;19917;-86
2022/11/16 02:57:23;;;;;;;;;;;16.00;64.10;;;;;;5064428;28;19920;-86
2022/11/16 02:59:51;;;;;;;;;;;16.00;64.30;;;;;;5051392;28;19924;-86
2022/11/16 03:02:35;;;;;;;;;;;15.90;64.20;;;;;;5056682;28;19909;-87
2022/11/16 03:05:07;;;;;;;;;;;16.00;64.30;;;;;;5070963;28;19924;-87
2022/11/16 03:07:35;;;;;;;;;;;15.90;64.30;;;;;;5069378;28;19935;-89
2022/11/16 03:10:01;;;;;;;;;;;15.90;64.40;;;;;;5069606;28;20287;-87
2022/11/16 03:12:29;;;;;;;;;;;16.00;64.40;;;;;;5070280;28;20272;-87
2022/11/16 03:14:57;;;;;;;;;;;16.00;64.40;;;;;;5058430;28;19928;-86
2022/11/16 03:17:27;;;;;;;;;;;16.00;64.40;;;;;;5049987;28;19931;-88
2022/11/16 03:20:11;;;;;;;;;;;16.00;64.40;;;;;;5065381;28;20015;-87
2022/11/16 03:22:48;;;;;;;;;;;16.00;64.50;;;;;;5058758;28;19909;-88
2022/11/16 03:25:16;;;;;;;;;;;15.90;64.50;;;;;;5074467;28;20066;-87
2022/11/16 03:27:52;;;;;;;;;;;16.00;64.50;;;;;;5060549;28;20349;-86
2022/11/16 03:30:19;;;;;;;;;;;15.90;64.50;;;;;;5061913;28;20368;-88
2022/11/16 03:33:04;;;;;;;;;;;15.90;64.60;;;;;;5052573;28;19916;-86
2022/11/16 03:35:34;;;;;;;;;;;15.90;64.50;;;;;;5056704;28;19925;-87
2022/11/16 03:38:01;;;;;;;;;;;15.90;64.70;;;;;;5053670;28;20151;-88
2022/11/16 03:40:29;;;;;;;;;;;15.90;64.70;;;;;;5054063;28;19959;-87
2022/11/16 03:42:54;;;;;;;;;;;15.80;64.70;;;;;;5054780;28;20363;-89
2022/11/16 03:45:20;;;;;;;;;;;15.80;64.70;;;;;;5058951;28;19982;-87
2022/11/16 03:47:45;;;;;;;;;;;15.90;64.70;;;;;;5068630;28;19919;-88
2022/11/16 03:50:11;;;;;;;;;;;15.80;64.70;;;;;;5062349;28;20367;-87
2022/11/16 03:52:36;;;;;;;;;;;15.80;64.80;;;;;;5057102;28;19913;-86
2022/11/16 03:55:03;;;;;;;;;;;15.90;64.80;;;;;;5066507;28;19957;-85
2022/11/16 03:57:28;;;;;;;;;;;15.90;64.90;;;;;;5056958;28;19920;-85
2022/11/16 03:59:53;;;;;;;;;;;15.80;64.80;;;;;;5066644;28;19925;-87
2022/11/16 04:02:19;;;;;;;;;;;15.80;64.70;;;;;;5068754;28;20408;-87
2022/11/16 04:24:12;;;;;;;;;;;15.80;65.00;;;;;;5056472;28;19916;-89
2022/11/16 04:29:24;;;;;;;;;;;15.70;65.00;;;;;;5067251;28;19931;-87
2022/11/16 04:40:03;;;;;;;;;;;15.70;65.10;;;;;;5072554;28;19955;-87
2022/11/16 04:42:28;;;;;;;;;;;15.70;65.20;;;;;;5066633;28;19912;-89
2022/11/16 04:47:38;;;;;;;;;;;15.70;65.10;;;;;;5062668;28;20638;-87
2022/11/16 04:50:04;;;;;;;;;;;15.70;65.10;;;;;;5055973;28;19920;-87
2022/11/16 04:52:30;;;;;;;;;;;15.80;65.10;;;;;;5065696;28;19913;-87
2022/11/16 04:54:55;;;;;;;;;;;15.70;65.10;;;;;;5070880;28;19939;-87
2022/11/16 04:57:21;;;;;;;;;;;15.70;65.10;;;;;;5072070;28;19943;-87
2022/11/16 04:59:47;;;;;;;;;;;15.70;65.10;;;;;;5058645;28;19924;-88
2022/11/16 05:02:14;;;;;;;;;;;15.80;65.20;;;;;;5056308;28;19923;-87
2022/11/16 05:04:40;;;;;;;;;;;15.80;65.20;;;;;;5060819;28;20387;-89
2022/11/16 05:07:10;;;;;;;;;;;15.80;65.10;;;;;;5055429;28;19920;-89
2022/11/16 05:09:40;;;;;;;;;;;15.80;65.10;;;;;;5057841;28;20058;-88
2022/11/16 05:12:06;;;;;;;;;;;15.80;65.10;;;;;;5068012;28;19920;-89
2022/11/16 05:14:31;;;;;;;;;;;15.80;65.10;;;;;;5061915;28;19927;-87
2022/11/16 05:16:57;;;;;;;;;;;15.80;65.10;;;;;;5054010;28;19913;-86
2022/11/16 05:22:06;;;;;;;;;;;15.80;65.10;;;;;;5057601;28;20370;-88
2022/11/16 05:24:32;;;;;;;;;;;15.80;65.10;;;;;;5062836;28;19921;-86
2022/11/16 05:26:58;;;;;;;;;;;15.80;65.00;;;;;;5054067;28;20271;-86
2022/11/16 05:29:24;;;;;;;;;;;15.90;65.10;;;;;;5062471;28;19960;-89
2022/11/16 05:31:49;;;;;;;;;;;15.90;65.00;;;;;;5055998;28;19956;-89
2022/11/16 05:34:15;;;;;;;;;;;15.90;65.00;;;;;;5065953;28;19912;-88
2022/11/16 05:36:40;;;;;;;;;;;15.90;65.00;;;;;;5061040;28;20347;-89
2022/11/16 05:39:06;;;;;;;;;;;15.90;65.00;;;;;;5061707;28;19927;-87
2022/11/16 05:41:31;;;;;;;;;;;15.80;64.90;;;;;;5063881;28;19920;-87
2022/11/16 05:43:58;;;;;;;;;;;15.80;65.00;;;;;;5056697;28;20299;-87
2022/11/16 05:46:24;;;;;;;;;;;15.90;65.00;;;;;;5057965;28;20015;-86
2022/11/16 05:48:52;;;;;;;;;;;15.90;65.10;;;;;;5066517;28;19920;-89
2022/11/16 05:51:18;;;;;;;;;;;15.90;65.00;;;;;;5066484;28;19944;-87
2022/11/16 05:53:43;;;;;;;;;;;15.90;65.00;;;;;;5067059;28;20315;-87
2022/11/16 05:56:10;;;;;;;;;;;15.80;65.00;;;;;;5053607;28;20431;-88
2022/11/16 05:58:35;;;;;;;;;;;15.80;65.00;;;;;;5052146;28;19931;-87
2022/11/16 06:01:01;;;;;;;;;;;15.80;65.00;;;;;;5053615;28;19991;-87
2022/11/16 06:03:27;;;;;;;;;;;15.90;65.00;;;;;;5054801;28;19939;-87
2022/11/16 06:05:57;;;;;;;;;;;15.90;65.00;;;;;;5049659;28;19948;-87
2022/11/16 06:08:23;;;;;;;;;;;15.80;64.90;;;;;;5050831;28;19924;-88
2022/11/16 06:10:48;;;;;;;;;;;15.80;65.00;;;;;;5049965;28;20307;-86
2022/11/16 06:13:15;;;;;;;;;;;15.90;65.00;;;;;;5054703;28;20016;-86
2022/11/16 06:15:40;;;;;;;;;;;15.90;64.90;;;;;;5070866;28;19908;-87
2022/11/16 06:18:06;;;;;;;;;;;15.90;64.90;;;;;;5063644;28;20015;-86
2022/11/16 06:20:32;;;;;;;;;;;15.90;64.90;;;;;;5049847;28;19913;-87
2022/11/16 06:22:57;;;;;;;;;;;15.90;64.90;;;;;;5049360;28;19913;-86
2022/11/16 06:25:23;;;;;;;;;;;15.90;65.00;;;;;;5050837;28;19992;-86
2022/11/16 06:27:49;;;;;;;;;;;15.90;65.00;;;;;;5052064;28;19913;-87
2022/11/16 06:30:14;;;;;;;;;;;15.90;65.00;;;;;;5052116;28;19912;-87
2022/11/16 06:32:40;;;;;;;;;;;15.90;65.00;;;;;;5060993;28;20382;-86
2022/11/16 06:35:06;;;;;;;;;;;15.90;65.00;;;;;;5067531;28;19999;-86
2022/11/16 06:37:31;;;;;;;;;;;16.00;64.90;;;;;;5060022;28;20398;-86
2022/11/16 06:39:57;;;;;;;;;;;15.90;64.90;;;;;;5062696;28;19913;-86
2022/11/16 06:42:22;;;;;;;;;;;15.90;64.90;;;;;;5066941;28;19924;-87
2022/11/16 06:44:48;;;;;;;;;;;16.00;64.90;;;;;;5062055;28;19920;-86
2022/11/16 06:47:13;;;;;;;;;;;16.00;64.90;;;;;;5062822;28;19928;-87
2022/11/16 06:49:39;;;;;;;;;;;16.00;64.90;;;;;;5050362;28;19921;-86
2022/11/16 06:52:04;;;;;;;;;;;16.00;64.90;;;;;;5046047;28;19925;-86
2022/11/16 06:54:30;;;;;;;;;;;16.00;64.90;;;;;;5039146;28;19921;-85
2022/11/16 06:56:55;;;;;;;;;;;16.00;64.90;;;;;;5054103;28;20062;-86
2022/11/16 06:59:21;;;;;;;;;;;16.10;64.80;;;;;;5049967;28;19913;-85
2022/11/16 07:01:46;;;;;;;;;;;16.10;64.80;;;;;;5051351;28;19917;-88
2022/11/16 07:04:12;;;;;;;;;;;16.10;64.70;;;;;;5050719;28;19966;-86
2022/11/16 07:06:38;;;;;;;;;;;16.10;64.70;;;;;;5050470;28;19927;-86
2022/11/16 07:09:07;;;;;;;;;;;16.10;64.60;;;;;;5049813;28;19917;-87
2022/11/16 07:11:33;;;;;;;;;;;16.10;64.70;;;;;;5051128;28;19931;-88
2022/11/16 07:13:58;;;;;;;;;;;16.10;64.70;;;;;;5051191;28;20553;-88
2022/11/16 07:16:24;;;;;;;;;;;16.10;64.70;;;;;;5051837;28;20583;-86
2022/11/16 07:18:50;;;;;;;;;;;16.10;64.70;;;;;;5051663;28;19938;-86
2022/11/16 07:21:15;;;;;;;;;;;16.10;64.80;;;;;;5052689;28;20003;-86
2022/11/16 07:23:44;;;;;;;;;;;16.00;64.80;;;;;;5050086;28;19967;-88
2022/11/16 07:26:10;;;;;;;;;;;16.00;64.90;;;;;;5049788;28;19917;-86
2022/11/16 07:28:35;;;;;;;;;;;16.10;64.90;;;;;;5049816;28;19990;-88
2022/11/16 07:31:01;;;;;;;;;;;16.10;65.00;;;;;;5059705;28;20046;-86
2022/11/16 07:33:27;;;;;;;;;;;16.10;65.00;;;;;;5054135;28;19927;-87
2022/11/16 07:35:53;;;;;;;;;;;16.10;65.00;;;;;;5069561;28;20621;-87
2022/11/16 07:38:18;;;;;;;;;;;16.10;65.00;;;;;;5070873;28;19920;-87
2022/11/16 07:40:44;;;;;;;;;;;16.10;65.00;;;;;;5069698;28;19920;-87
2022/11/16 07:43:10;;;;;;;;;;;16.10;65.00;;;;;;5070716;28;19919;-87
2022/11/16 07:45:39;;;;;;;;;;;16.10;65.00;;;;;;5056884;28;20582;-87
2022/11/16 07:48:04;;;;;;;;;;;16.10;65.10;;;;;;5049309;28;19920;-87
2022/11/16 07:50:30;;;;;;;;;;;16.20;65.10;;;;;;5051045;28;20011;-88
2022/11/16 07:52:55;;;;;;;;;;;16.20;65.00;;;;;;5066133;28;19916;-87
2022/11/16 07:55:23;;;;;;;;;;;16.20;65.00;;;;;;5050335;28;19975;-87
2022/11/16 07:57:49;;;;;;;;;;;16.30;65.00;;;;;;5049257;28;20287;-87
2022/11/16 08:00:15;;;;;;;;;;;16.30;65.00;;;;;;5050445;28;20315;-88
2022/11/16 08:02:40;;;;;;;;;;;16.30;65.00;;;;;;5067271;28;20031;-86
2022/11/16 08:05:06;;;;;;;;;;;16.30;65.00;;;;;;5070152;28;20015;-90
2022/11/16 08:07:32;;;;;;;;;;;16.30;64.90;;;;;;5067856;28;20066;-87
2022/11/16 08:09:57;;;;;;;;;;;16.30;64.90;;;;;;5069109;28;19943;-87
2022/11/16 08:12:28;;;;;;;;;;;16.40;64.90;;;;;;5068720;28;20440;-87
2022/11/16 08:14:54;;;;;;;;;;;16.40;64.80;;;;;;5069506;28;19927;-87
2022/11/16 08:17:19;;;;;;;;;;;16.50;64.80;;;;;;5069129;28;19916;-89
2022/11/16 08:19:45;;;;;;;;;;;16.50;64.70;;;;;;5068855;28;19924;-86
2022/11/16 08:22:11;;;;;;;;;;;16.50;64.70;;;;;;5069338;28;20411;-89
2022/11/16 08:24:37;;;;;;;;;;;16.50;64.70;;;;;;5069993;28;19989;-86
2022/11/16 08:27:03;;;;;;;;;;;16.50;64.70;;;;;;5070436;28;19916;-85
2022/11/16 08:29:28;;;;;;;;;;;16.50;64.80;;;;;;5068365;28;19936;-86
2022/11/16 08:31:54;;;;;;;;;;;16.50;64.90;;;;;;5057374;28;19928;-89
2022/11/16 08:34:20;;;;;;;;;;;16.60;64.80;;;;;;5061867;28;20003;-87
2022/11/16 08:36:46;;;;;;;;;;;16.60;64.90;;;;;;5068222;28;19913;-87
2022/11/16 08:39:11;;;;;;;;;;;16.60;64.90;;;;;;5068633;28;20406;-89
2022/11/16 08:41:37;;;;;;;;;;;16.60;64.80;;;;;;5068653;28;19912;-88
2022/11/16 08:44:03;;;;;;;;;;;16.60;64.80;;;;;;5069898;28;19917;-86
2022/11/16 08:46:28;;;;;;;;;;;16.70;64.90;;;;;;5048270;28;19921;-88
2022/11/16 08:48:55;;;;;;;;;;;16.70;64.90;;;;;;5048015;28;19963;-87
2022/11/16 08:51:21;;;;;;;;;;;16.70;65.00;;;;;;5048365;28;19927;-87
2022/11/16 08:53:47;;;;;;;;;;;16.70;64.70;;;;;;5048173;28;19913;-89
2022/11/16 08:56:13;;;;;;;;;;;16.70;64.90;;;;;;5048315;28;19928;-87
2022/11/16 08:58:45;;;;;;;;;;;16.70;64.80;;;;;;5049607;28;20498;-87
2022/11/16 09:01:15;;;;;;;;;;;16.70;64.90;;;;;;5048056;28;19921;-88
2022/11/16 09:03:41;;;;;;;;;;;16.80;65.00;;;;;;5049387;28;19920;-88
2022/11/16 09:06:07;;;;;;;;;;;16.80;65.10;;;;;;5048475;28;19920;-87
2022/11/16 09:08:35;;;;;;;;;;;16.80;65.10;;;;;;5047730;28;19924;-88
2022/11/16 09:11:09;;;;;;;;;;;16.90;65.20;;;;;;5047929;28;19922;-88
2022/11/16 09:13:34;;;;;;;;;;;17.10;65.20;;;;;;5047802;28;20581;-89
2022/11/16 09:16:00;;;;;;;;;;;17.10;65.40;;;;;;5051198;28;19921;-88
2022/11/16 09:18:26;;;;;;;;;;;17.30;65.20;;;;;;5057631;28;20020;-88
2022/11/16 09:20:52;;;;;;;;;;;17.30;65.40;;;;;;5058778;28;19929;-87
2022/11/16 09:23:17;;;;;;;;;;;17.40;65.20;;;;;;5049728;28;19912;-88
2022/11/16 09:25:47;;;;;;;;;;;17.40;65.10;;;;;;5058414;28;20286;-88
2022/11/16 09:28:17;;;;;;;;;;;17.50;64.90;;;;;;5069370;28;19920;-88
2022/11/16 09:30:43;;;;;;;;;;;17.60;64.90;;;;;;5067703;28;19926;-87
2022/11/16 09:33:08;;;;;;;;;;;17.70;65.00;;;;;;5049900;28;19916;-89
2022/11/16 09:35:34;;;;;;;;;;;17.70;64.90;;;;;;5067154;28;20436;-87
2022/11/16 09:37:59;;;;;;;;;;;17.70;64.70;;;;;;5067513;28;19928;-87
2022/11/16 09:40:31;;;;;;;;;;;17.80;64.70;;;;;;5067197;28;19920;-86
2022/11/16 09:43:15;;;;;;;;;;;17.90;64.70;;;;;;5068446;28;19951;-87
2022/11/16 09:46:00;;;;;;;;;;;18.00;64.70;;;;;;5053522;28;19928;-89
2022/11/16 09:48:26;;;;;;;;;;;18.10;64.80;;;;;;5048425;28;19920;-89
2022/11/16 09:50:52;;;;;;;;;;;18.10;64.90;;;;;;5048734;28;19925;-88
2022/11/16 09:53:33;;;;;;;;;;;18.20;64.50;;;;;;5047513;28;19919;-89
2022/11/16 09:56:04;;;;;;;;;;;18.20;64.50;;;;;;5046795;28;19927;-87
2022/11/16 09:58:37;;;;;;;;;;;18.20;64.30;;;;;;5051383;28;20441;-87
2022/11/16 10:01:11;;;;;;;;;;;18.30;64.30;;;;;;5059019;28;19932;-87
2022/11/16 10:03:40;;;;;;;;;;;18.30;64.40;;;;;;5049281;28;19967;-86
2022/11/16 10:06:09;;;;;;;;;;;18.40;64.60;;;;;;5061104;28;19920;-87
2022/11/16 10:08:42;;;;;;;;;;;18.50;64.40;;;;;;5058635;28;19924;-86
2022/11/16 10:11:28;;;;;;;;;;;18.50;64.40;;;;;;5054587;28;19927;-87
2022/11/16 10:13:53;;;;;;;;;;;18.60;64.40;;;;;;5058355;28;19913;-86
2022/11/16 10:16:38;;;;;;;;;;;18.70;64.50;;;;;;5056136;28;19979;-87
2022/11/16 10:19:22;;;;;;;;;;;18.70;64.30;;;;;;5070061;28;19927;-87
2022/11/16 10:21:54;;;;;;;;;;;18.70;64.40;;;;;;5065562;28;19978;-87
2022/11/16 10:24:23;;;;;;;;;;;18.70;64.30;;;;;;5060750;28;19916;-90
2022/11/16 10:26:54;;;;;;;;;;;18.70;64.30;;;;;;5050972;28;19920;-88
2022/11/16 10:29:23;;;;;;;;;;;18.60;64.60;;;;;;5068382;28;19912;-86
2022/11/16 10:31:51;;;;;;;;;;;18.60;64.60;;;;;;5056926;28;19974;-87
2022/11/16 10:34:20;;;;;;;;;;;18.60;64.80;;;;;;5058397;28;19912;-87
2022/11/16 10:36:46;;;;;;;;;;;18.60;64.80;;;;;;5068156;28;19951;-88
2022/11/16 10:39:13;;;;;;;;;;;18.60;65.00;;;;;;5068340;28;20447;-89
2022/11/16 10:41:43;;;;;;;;;;;18.70;65.20;;;;;;5067038;28;19912;-88
2022/11/16 10:44:14;;;;;;;;;;;18.80;65.30;;;;;;5066104;28;19912;-88
2022/11/16 10:46:43;;;;;;;;;;;18.80;65.10;;;;;;5064381;28;20374;-87
2022/11/16 10:49:17;;;;;;;;;;;18.90;65.00;;;;;;5047044;28;19913;-88
2022/11/16 10:51:43;;;;;;;;;;;19.00;65.10;;;;;;5046301;28;19929;-88
2022/11/16 10:54:13;;;;;;;;;;;19.10;65.20;;;;;;5046767;28;19913;-90
2022/11/16 10:56:41;;;;;;;;;;;19.20;65.30;;;;;;5046278;28;20019;-87
2022/11/16 10:59:12;;;;;;;;;;;19.30;65.40;;;;;;5046130;28;19927;-89
2022/11/16 11:01:57;;;;;;;;;;;19.50;65.00;;;;;;5047740;28;19928;-88
2022/11/16 11:04:24;;;;;;;;;;;19.60;65.00;;;;;;5047304;28;19917;-88
2022/11/16 11:06:51;;;;;;;;;;;19.60;65.00;;;;;;5046833;28;20431;-88
2022/11/16 11:09:22;;;;;;;;;;;19.70;64.90;;;;;;5048760;28;19912;-89
2022/11/16 11:14:54;;;;;;;;;;;19.60;64.30;;;;;;5047726;28;20667;-87
2022/11/16 11:17:20;;;;;;;;;;;19.60;64.40;;;;;;5047774;28;19924;-87
2022/11/16 11:19:45;;;;;;;;;;;19.60;64.30;;;;;;5047761;28;19982;-89
2022/11/16 11:22:13;;;;;;;;;;;19.70;64.40;;;;;;5047898;28;19927;-88
2022/11/16 11:24:45;;;;;;;;;;;19.70;64.50;;;;;;5047036;28;19924;-87
2022/11/16 11:27:11;;;;;;;;;;;19.70;64.20;;;;;;5046809;28;19916;-88
2022/11/16 11:29:37;;;;;;;;;;;19.70;63.90;;;;;;5048118;28;19971;-88
2022/11/16 11:32:04;;;;;;;;;;;19.80;64.10;;;;;;5045782;28;19925;-86
2022/11/16 11:34:33;;;;;;;;;;;19.90;64.50;;;;;;5060045;28;20062;-87
2022/11/16 11:37:00;;;;;;;;;;;20.10;64.70;;;;;;5068136;28;19921;-88
2022/11/16 11:39:30;;;;;;;;;;;20.30;64.70;;;;;;5066629;28;19955;-87
2022/11/16 11:42:18;;;;;;;;;;;20.50;64.60;;;;;;5068681;28;19940;-87
2022/11/16 11:44:50;;;;;;;;;;;20.70;64.60;;;;;;5064910;28;19913;-87
2022/11/16 11:47:37;;;;;;;;;;;20.90;64.00;;;;;;5050352;28;20017;-89
2022/11/16 11:50:19;;;;;;;;;;;21.20;64.00;;;;;;5050408;28;20370;-89
2022/11/16 11:52:49;;;;;;;;;;;21.40;63.80;;;;;;5052747;28;19928;-89
2022/11/16 11:55:16;;;;;;;;;;;21.70;63.80;;;;;;5052477;28;19951;-91
2022/11/16 11:57:42;;;;;;;;;;;21.80;63.00;;;;;;5049700;28;19929;-88
2022/11/16 12:00:11;;;;;;;;;;;22.00;62.90;;;;;;5050091;28;20378;-88
2022/11/16 12:02:50;;;;;;;;;;;21.80;62.00;;;;;;5049948;28;19921;-89
2022/11/16 12:05:19;;;;;;;;;;;21.70;61.40;;;;;;5051011;28;19913;-89
2022/11/16 12:07:51;;;;;;;;;;;21.50;61.60;;;;;;5050375;28;19942;-89
2022/11/16 12:10:25;;;;;;;;;;;21.30;61.70;;;;;;5050870;28;19967;-89
2022/11/16 12:13:06;;;;;;;;;;;21.20;61.70;;;;;;5049556;28;20307;-89
2022/11/16 12:15:37;;;;;;;;;;;20.90;62.00;;;;;;5052939;28;20026;-88
2022/11/16 12:18:22;;;;;;;;;;;20.70;62.20;;;;;;5049249;28;19929;-87
2022/11/16 12:20:54;;;;;;;;;;;20.60;62.60;;;;;;5048990;28;20224;-86
2022/11/16 12:23:32;;;;;;;;;;;20.40;63.00;;;;;;5048641;28;19916;-89
2022/11/16 12:26:05;;;;;;;;;;;20.40;63.40;;;;;;5049340;28;19963;-87
2022/11/16 12:28:46;;;;;;;;;;;20.30;63.70;;;;;;5058221;28;20610;-89
2022/11/16 12:31:20;;;;;;;;;;;20.30;63.70;;;;;;5050699;28;19913;-88
2022/11/16 12:33:52;;;;;;;;;;;20.20;63.70;;;;;;5064203;28;19924;-89
2022/11/16 12:36:17;;;;;;;;;;;20.00;63.30;;;;;;5065547;28;19959;-87
2022/11/16 12:39:11;;;;;;;;;;;20.00;63.90;;;;;;5056797;28;20019;-87
2022/11/16 12:41:55;;;;;;;;;;;19.90;63.90;;;;;;5048890;28;19924;-87
2022/11/16 12:44:33;;;;;;;;;;;19.80;64.10;;;;;;5049833;28;19916;-87
2022/11/16 12:47:18;;;;;;;;;;;19.70;64.10;;;;;;5050499;28;19924;-87
2022/11/16 12:49:49;;;;;;;;;;;19.60;64.00;;;;;;5057889;28;19916;-87
2022/11/16 12:52:17;;;;;;;;;;;19.50;64.10;;;;;;5068261;28;19927;-87
2022/11/16 12:55:02;;;;;;;;;;;19.50;64.40;;;;;;5054951;28;19920;-88
2022/11/16 12:57:43;;;;;;;;;;;19.40;64.40;;;;;;5048112;28;20036;-88
2022/11/16 13:00:11;;;;;;;;;;;19.40;64.60;;;;;;5054237;28;19920;-88
2022/11/16 13:02:37;;;;;;;;;;;19.40;64.70;;;;;;5048710;28;19920;-87
2022/11/16 13:05:05;;;;;;;;;;;19.50;64.40;;;;;;5049182;28;20370;-87
2022/11/16 13:07:35;;;;;;;;;;;19.50;64.50;;;;;;5069301;28;19970;-87
2022/11/16 13:10:06;;;;;;;;;;;19.50;64.70;;;;;;5070095;28;19912;-86
2022/11/16 13:12:32;;;;;;;;;;;19.50;64.40;;;;;;5069748;28;19920;-87
2022/11/16 13:14:58;;;;;;;;;;;19.50;64.00;;;;;;5068138;28;19913;-87
2022/11/16 13:17:26;;;;;;;;;;;19.40;64.10;;;;;;5069292;28;19928;-88
2022/11/16 13:19:54;;;;;;;;;;;19.40;63.90;;;;;;5049280;28;19913;-89
2022/11/16 13:22:21;;;;;;;;;;;19.30;63.60;;;;;;5050443;28;20466;-87
2022/11/16 13:24:53;;;;;;;;;;;19.20;64.00;;;;;;5049804;28;19913;-88
2022/11/16 13:27:22;;;;;;;;;;;19.20;64.20;;;;;;5053474;28;19921;-87
2022/11/16 13:29:54;;;;;;;;;;;19.20;64.40;;;;;;5058265;28;19947;-86
2022/11/16 13:32:33;;;;;;;;;;;19.10;64.10;;;;;;5059106;28;19925;-86
2022/11/16 13:35:02;;;;;;;;;;;19.00;64.10;;;;;;5055414;28;20403;-88
2022/11/16 13:37:37;;;;;;;;;;;19.00;63.70;;;;;;5070347;28;19924;-87
2022/11/16 13:40:03;;;;;;;;;;;18.90;64.00;;;;;;5057422;28;20539;-87
2022/11/16 13:42:30;;;;;;;;;;;18.90;63.90;;;;;;5049253;28;19963;-87
2022/11/16 13:45:06;;;;;;;;;;;18.80;64.20;;;;;;5055696;28;19924;-88
2022/11/16 13:47:32;;;;;;;;;;;18.90;64.60;;;;;;5067882;28;20019;-88
2022/11/16 13:50:00;;;;;;;;;;;18.90;64.30;;;;;;5068583;28;20007;-89
2022/11/16 13:52:42;;;;;;;;;;;18.90;64.20;;;;;;5063359;28;19947;-88
2022/11/16 13:55:22;;;;;;;;;;;19.00;64.60;;;;;;5049236;28;20023;-88
2022/11/16 13:57:49;;;;;;;;;;;19.00;64.40;;;;;;5047346;28;19928;-88
2022/11/16 14:00:21;;;;;;;;;;;19.10;64.90;;;;;;5063178;28;19916;-88
2022/11/16 14:02:47;;;;;;;;;;;19.20;65.00;;;;;;5067863;28;20003;-88
2022/11/16 14:05:35;;;;;;;;;;;19.20;64.60;;;;;;5056791;28;20019;-88
2022/11/16 14:08:19;;;;;;;;;;;19.30;64.20;;;;;;5047321;28;20447;-88
2022/11/16 14:10:48;;;;;;;;;;;19.30;63.80;;;;;;5059011;28;20029;-88
2022/11/16 14:13:34;;;;;;;;;;;19.20;64.00;;;;;;5046592;28;19974;-87
2022/11/16 14:16:18;;;;;;;;;;;19.20;64.10;;;;;;5065306;28;19919;-87
2022/11/16 14:18:44;;;;;;;;;;;19.20;63.80;;;;;;5069705;28;19943;-88
2022/11/16 14:21:13;;;;;;;;;;;19.20;63.40;;;;;;5067409;28;20268;-87
2022/11/16 14:23:54;;;;;;;;;;;19.20;63.30;;;;;;5055131;28;20400;-87
2022/11/16 14:26:23;;;;;;;;;;;19.20;63.30;;;;;;5047088;28;19942;-87
2022/11/16 14:28:48;;;;;;;;;;;19.10;63.40;;;;;;5049767;28;19959;-89
2022/11/16 14:31:16;;;;;;;;;;;19.10;63.10;;;;;;5054116;28;19960;-87
2022/11/16 14:33:47;;;;;;;;;;;19.00;62.50;;;;;;5068949;28;19921;-86
2022/11/16 14:36:13;;;;;;;;;;;19.00;63.00;;;;;;5062550;28;19921;-87
2022/11/16 14:38:40;;;;;;;;;;;18.90;63.20;;;;;;5062382;28;19925;-88
2022/11/16 14:41:10;;;;;;;;;;;18.80;63.40;;;;;;5048672;28;19913;-89
2022/11/16 14:43:41;;;;;;;;;;;18.80;63.00;;;;;;5060221;28;20007;-87
2022/11/16 14:46:08;;;;;;;;;;;18.80;62.90;;;;;;5049580;28;20008;-87
2022/11/16 14:48:40;;;;;;;;;;;18.70;62.10;;;;;;5052019;28;19921;-88
2022/11/16 14:51:11;;;;;;;;;;;18.70;62.70;;;;;;5067989;28;19912;-87
2022/11/16 14:53:39;;;;;;;;;;;18.60;62.50;;;;;;5066624;28;19928;-88
2022/11/16 14:56:15;;;;;;;;;;;18.60;62.50;;;;;;5067640;28;19915;-89
2022/11/16 14:58:51;;;;;;;;;;;18.50;62.10;;;;;;5066241;28;19928;-88
2022/11/16 15:01:17;;;;;;;;;;;18.40;61.80;;;;;;5076083;28;19952;-87
2022/11/16 15:04:02;;;;;;;;;;;18.30;62.00;;;;;;5065048;28;19979;-87
2022/11/16 15:06:28;;;;;;;;;;;18.30;61.30;;;;;;5087686;28;20358;-88
2022/11/16 15:08:59;;;;;;;;;;;18.20;61.70;;;;;;5087897;28;19912;-88